Crane, Oregon
Current Conditions -  °F | °C
As of 7:53 AM on Thursday 29 Jan 2015 (Local Time) from KBNO Reporting Station
Clear Clear  
Wind Chill:   Ceiling: Unl
Heat Index:   Visibility: 10mi
Dew Point: -2°   Wind: 3mph
Humidity: 85%   Direction: 20°NNE
Pressure: 30.36"   Gusts: NA
Location:  43.41°N, 118.58°W
Report Text: KBNO 291553Z AUTO 02003KT 10SM CLR 00/M02 A3036 RMK AO2 SLP303 T00001022
Loading
Personal Weather Stations






























Interactive Weather Map New forecast layout! Learn more

10-Day Weather Forecast

Advertisements
Track Severe Weather on mobile